sensor_id;sensor_type;location;lat;lon;timestamp;P1;durP1;ratioP1;P2;durP2;ratioP2
78382;SDS011;67668;52.294;4.692;2023-02-27T00:00:37;1.60;;;0.65;;
78382;SDS011;67668;52.294;4.692;2023-02-27T00:03:02;2.67;;;0.30;;
78382;SDS011;67668;52.294;4.692;2023-02-27T00:07:53;2.87;;;0.60;;
78382;SDS011;67668;52.294;4.692;2023-02-27T00:10:19;2.37;;;0.30;;
78382;SDS011;67668;52.294;4.692;2023-02-27T00:12:44;1.20;;;0.40;;
78382;SDS011;67668;52.294;4.692;2023-02-27T00:15:14;2.13;;;0.23;;
78382;SDS011;67668;52.294;4.692;2023-02-27T00:17:41;1.13;;;0.45;;
78382;SDS011;67668;52.294;4.692;2023-02-27T00:20:08;3.13;;;0.50;;
78382;SDS011;67668;52.294;4.692;2023-02-27T00:22:36;3.53;;;0.40;;
78382;SDS011;67668;52.294;4.692;2023-02-27T00:25:02;4.05;;;0.77;;
78382;SDS011;67668;52.294;4.692;2023-02-27T00:29:53;2.90;;;0.50;;
78382;SDS011;67668;52.294;4.692;2023-02-27T00:32:18;1.90;;;0.37;;
78382;SDS011;67668;52.294;4.692;2023-02-27T00:37:10;2.50;;;0.60;;
78382;SDS011;67668;52.294;4.692;2023-02-27T00:39:35;4.47;;;0.52;;
78382;SDS011;67668;52.294;4.692;2023-02-27T00:42:01;2.60;;;0.50;;
78382;SDS011;67668;52.294;4.692;2023-02-27T00:44:26;2.13;;;0.55;;
78382;SDS011;67668;52.294;4.692;2023-02-27T00:46:51;1.15;;;0.40;;
78382;SDS011;67668;52.294;4.692;2023-02-27T00:51:43;1.88;;;0.90;;
78382;SDS011;67668;52.294;4.692;2023-02-27T00:54:09;9.98;;;0.90;;
78382;SDS011;67668;52.294;4.692;2023-02-27T00:59:00;2.22;;;0.45;;
78382;SDS011;67668;52.294;4.692;2023-02-27T01:04:01;2.00;;;0.40;;
78382;SDS011;67668;52.294;4.692;2023-02-27T01:06:26;2.07;;;0.43;;
78382;SDS011;67668;52.294;4.692;2023-02-27T01:08:52;4.65;;;0.70;;
78382;SDS011;67668;52.294;4.692;2023-02-27T01:11:17;3.03;;;0.60;;
78382;SDS011;67668;52.294;4.692;2023-02-27T01:13:43;3.92;;;1.00;;
78382;SDS011;67668;52.294;4.692;2023-02-27T01:16:10;7.20;;;0.80;;
78382;SDS011;67668;52.294;4.692;2023-02-27T01:18:36;2.45;;;0.70;;
78382;SDS011;67668;52.294;4.692;2023-02-27T01:21:02;5.18;;;0.63;;
78382;SDS011;67668;52.294;4.692;2023-02-27T01:23:27;3.47;;;0.47;;
78382;SDS011;67668;52.294;4.692;2023-02-27T01:25:53;2.67;;;0.95;;
78382;SDS011;67668;52.294;4.692;2023-02-27T01:28:18;2.20;;;1.00;;
78382;SDS011;67668;52.294;4.692;2023-02-27T01:30:44;2.67;;;0.60;;
78382;SDS011;67668;52.294;4.692;2023-02-27T01:33:09;2.47;;;0.70;;
78382;SDS011;67668;52.294;4.692;2023-02-27T01:35:34;1.83;;;0.60;;
78382;SDS011;67668;52.294;4.692;2023-02-27T01:38:00;5.55;;;1.35;;
78382;SDS011;67668;52.294;4.692;2023-02-27T01:40:26;2.88;;;0.57;;
78382;SDS011;67668;52.294;4.692;2023-02-27T01:42:51;4.80;;;1.20;;
78382;SDS011;67668;52.294;4.692;2023-02-27T01:45:22;4.30;;;0.80;;
78382;SDS011;67668;52.294;4.692;2023-02-27T01:48:04;3.88;;;0.60;;
78382;SDS011;67668;52.294;4.692;2023-02-27T01:50:34;4.72;;;1.02;;
78382;SDS011;67668;52.294;4.692;2023-02-27T01:53:04;3.95;;;1.10;;
78382;SDS011;67668;52.294;4.692;2023-02-27T01:57:57;3.92;;;1.10;;
78382;SDS011;67668;52.294;4.692;2023-02-27T02:00:23;4.75;;;0.77;;
78382;SDS011;67668;52.294;4.692;2023-02-27T02:02:55;4.35;;;1.10;;
78382;SDS011;67668;52.294;4.692;2023-02-27T02:05:24;6.15;;;0.75;;
78382;SDS011;67668;52.294;4.692;2023-02-27T02:07:50;3.33;;;1.58;;
78382;SDS011;67668;52.294;4.692;2023-02-27T02:10:17;4.50;;;0.90;;
78382;SDS011;67668;52.294;4.692;2023-02-27T02:12:43;2.38;;;0.90;;
78382;SDS011;67668;52.294;4.692;2023-02-27T02:15:09;2.95;;;0.55;;
78382;SDS011;67668;52.294;4.692;2023-02-27T02:17:37;2.58;;;1.00;;
78382;SDS011;67668;52.294;4.692;2023-02-27T02:20:26;2.08;;;1.00;;
78382;SDS011;67668;52.294;4.692;2023-02-27T02:53:50;3.58;;;1.23;;
78382;SDS011;67668;52.294;4.692;2023-02-27T03:02:09;5.15;;;1.63;;
78382;SDS011;67668;52.294;4.692;2023-02-27T03:04:40;6.20;;;2.28;;
78382;SDS011;67668;52.294;4.692;2023-02-27T03:07:16;3.17;;;1.45;;
78382;SDS011;67668;52.294;4.692;2023-02-27T03:09:59;2.13;;;1.10;;
78382;SDS011;67668;52.294;4.692;2023-02-27T03:12:38;3.13;;;1.38;;
78382;SDS011;67668;52.294;4.692;2023-02-27T03:15:09;4.25;;;1.30;;
78382;SDS011;67668;52.294;4.692;2023-02-27T03:17:51;5.18;;;1.50;;
78382;SDS011;67668;52.294;4.692;2023-02-27T03:20:42;4.38;;;1.23;;
78382;SDS011;67668;52.294;4.692;2023-02-27T03:26:07;3.35;;;0.95;;
78382;SDS011;67668;52.294;4.692;2023-02-27T03:28:37;3.17;;;0.80;;
78382;SDS011;67668;52.294;4.692;2023-02-27T03:31:16;5.43;;;3.15;;
78382;SDS011;67668;52.294;4.692;2023-02-27T03:33:48;3.88;;;1.50;;
78382;SDS011;67668;52.294;4.692;2023-02-27T03:39:09;3.13;;;1.30;;
78382;SDS011;67668;52.294;4.692;2023-02-27T03:41:51;2.70;;;1.45;;
78382;SDS011;67668;52.294;4.692;2023-02-27T03:44:27;3.10;;;1.33;;
78382;SDS011;67668;52.294;4.692;2023-02-27T03:46:59;5.85;;;1.70;;
78382;SDS011;67668;52.294;4.692;2023-02-27T03:49:24;4.13;;;1.20;;
78382;SDS011;67668;52.294;4.692;2023-02-27T03:51:50;4.28;;;1.40;;
78382;SDS011;67668;52.294;4.692;2023-02-27T03:54:18;5.13;;;1.30;;
78382;SDS011;67668;52.294;4.692;2023-02-27T03:57:02;3.88;;;1.05;;
78382;SDS011;67668;52.294;4.692;2023-02-27T03:59:30;3.28;;;1.50;;
78382;SDS011;67668;52.294;4.692;2023-02-27T04:01:57;4.20;;;1.15;;
78382;SDS011;67668;52.294;4.692;2023-02-27T04:04:24;1.83;;;1.15;;
78382;SDS011;67668;52.294;4.692;2023-02-27T04:06:55;7.05;;;1.30;;
78382;SDS011;67668;52.294;4.692;2023-02-27T04:14:59;3.80;;;1.05;;
78382;SDS011;67668;52.294;4.692;2023-02-27T04:17:28;5.38;;;1.83;;
78382;SDS011;67668;52.294;4.692;2023-02-27T04:20:16;3.85;;;1.15;;
78382;SDS011;67668;52.294;4.692;2023-02-27T04:22:59;3.75;;;1.30;;
78382;SDS011;67668;52.294;4.692;2023-02-27T04:25:38;2.92;;;1.35;;
78382;SDS011;67668;52.294;4.692;2023-02-27T04:28:30;5.55;;;1.25;;
78382;SDS011;67668;52.294;4.692;2023-02-27T04:31:18;4.88;;;1.20;;
78382;SDS011;67668;52.294;4.692;2023-02-27T04:34:09;4.88;;;1.10;;
78382;SDS011;67668;52.294;4.692;2023-02-27T04:36:50;5.50;;;1.33;;
78382;SDS011;67668;52.294;4.692;2023-02-27T04:42:10;3.92;;;1.35;;
78382;SDS011;67668;52.294;4.692;2023-02-27T04:44:40;5.78;;;1.65;;
78382;SDS011;67668;52.294;4.692;2023-02-27T04:47:09;3.88;;;1.30;;
78382;SDS011;67668;52.294;4.692;2023-02-27T04:49:48;3.10;;;1.70;;
78382;SDS011;67668;52.294;4.692;2023-02-27T04:57:39;3.53;;;1.35;;
78382;SDS011;67668;52.294;4.692;2023-02-27T05:00:15;5.13;;;1.30;;
78382;SDS011;67668;52.294;4.692;2023-02-27T05:02:46;2.47;;;1.23;;
78382;SDS011;67668;52.294;4.692;2023-02-27T05:05:35;8.43;;;1.42;;
78382;SDS011;67668;52.294;4.692;2023-02-27T05:08:04;6.10;;;1.25;;
78382;SDS011;67668;52.294;4.692;2023-02-27T05:13:32;5.15;;;1.48;;
78382;SDS011;67668;52.294;4.692;2023-02-27T05:16:45;4.13;;;1.00;;
78382;SDS011;67668;52.294;4.692;2023-02-27T05:18:57;2.30;;;0.80;;
78382;SDS011;67668;52.294;4.692;2023-02-27T05:24:04;3.80;;;1.40;;
78382;SDS011;67668;52.294;4.692;2023-02-27T05:29:29;5.18;;;1.48;;
78382;SDS011;67668;52.294;4.692;2023-02-27T05:37:30;4.57;;;1.50;;
78382;SDS011;67668;52.294;4.692;2023-02-27T05:40:01;2.53;;;1.10;;
78382;SDS011;67668;52.294;4.692;2023-02-27T05:42:36;9.20;;;1.40;;
78382;SDS011;67668;52.294;4.692;2023-02-27T05:45:09;3.25;;;1.23;;
78382;SDS011;67668;52.294;4.692;2023-02-27T05:47:39;2.25;;;1.20;;
78382;SDS011;67668;52.294;4.692;2023-02-27T05:50:14;3.00;;;1.30;;
78382;SDS011;67668;52.294;4.692;2023-02-27T05:52:43;2.85;;;1.17;;
78382;SDS011;67668;52.294;4.692;2023-02-27T05:55:19;2.55;;;1.23;;
78382;SDS011;67668;52.294;4.692;2023-02-27T06:00:24;4.10;;;1.23;;
78382;SDS011;67668;52.294;4.692;2023-02-27T06:02:57;4.43;;;1.30;;
78382;SDS011;67668;52.294;4.692;2023-02-27T06:05:23;2.47;;;1.30;;
78382;SDS011;67668;52.294;4.692;2023-02-27T06:07:49;3.90;;;1.08;;
78382;SDS011;67668;52.294;4.692;2023-02-27T06:10:16;2.60;;;1.00;;
78382;SDS011;67668;52.294;4.692;2023-02-27T06:12:43;5.18;;;1.25;;
78382;SDS011;67668;52.294;4.692;2023-02-27T06:15:09;3.38;;;1.13;;
78382;SDS011;67668;52.294;4.692;2023-02-27T06:17:35;3.22;;;1.02;;
78382;SDS011;67668;52.294;4.692;2023-02-27T06:20:00;5.68;;;1.05;;
78382;SDS011;67668;52.294;4.692;2023-02-27T06:22:27;2.65;;;1.15;;
78382;SDS011;67668;52.294;4.692;2023-02-27T06:24:53;6.25;;;1.40;;
78382;SDS011;67668;52.294;4.692;2023-02-27T06:27:19;4.05;;;1.00;;
78382;SDS011;67668;52.294;4.692;2023-02-27T06:29:44;6.50;;;1.10;;
78382;SDS011;67668;52.294;4.692;2023-02-27T06:32:09;4.87;;;1.00;;
78382;SDS011;67668;52.294;4.692;2023-02-27T06:34:35;3.97;;;1.15;;
78382;SDS011;67668;52.294;4.692;2023-02-27T06:37:00;6.30;;;1.50;;
78382;SDS011;67668;52.294;4.692;2023-02-27T06:39:26;5.40;;;1.00;;
78382;SDS011;67668;52.294;4.692;2023-02-27T06:41:53;3.85;;;1.15;;
78382;SDS011;67668;52.294;4.692;2023-02-27T06:44:19;6.18;;;1.67;;
78382;SDS011;67668;52.294;4.692;2023-02-27T06:46:44;7.75;;;1.45;;
78382;SDS011;67668;52.294;4.692;2023-02-27T06:49:10;4.80;;;1.55;;
78382;SDS011;67668;52.294;4.692;2023-02-27T06:51:35;3.55;;;1.55;;
78382;SDS011;67668;52.294;4.692;2023-02-27T06:54:02;5.28;;;1.25;;
78382;SDS011;67668;52.294;4.692;2023-02-27T06:56:27;6.15;;;1.55;;
78382;SDS011;67668;52.294;4.692;2023-02-27T06:58:52;5.30;;;1.42;;
78382;SDS011;67668;52.294;4.692;2023-02-27T07:01:18;2.10;;;1.23;;
78382;SDS011;67668;52.294;4.692;2023-02-27T07:03:43;4.07;;;1.30;;
78382;SDS011;67668;52.294;4.692;2023-02-27T07:06:09;2.53;;;1.10;;
78382;SDS011;67668;52.294;4.692;2023-02-27T07:11:01;3.85;;;1.52;;
78382;SDS011;67668;52.294;4.692;2023-02-27T07:13:26;7.57;;;1.47;;
78382;SDS011;67668;52.294;4.692;2023-02-27T07:15:52;6.85;;;1.48;;
78382;SDS011;67668;52.294;4.692;2023-02-27T07:18:18;5.40;;;1.23;;
78382;SDS011;67668;52.294;4.692;2023-02-27T07:20:43;5.50;;;1.67;;
78382;SDS011;67668;52.294;4.692;2023-02-27T07:23:08;6.07;;;1.50;;
78382;SDS011;67668;52.294;4.692;2023-02-27T07:25:35;4.95;;;1.60;;
78382;SDS011;67668;52.294;4.692;2023-02-27T07:28:01;6.07;;;2.30;;
78382;SDS011;67668;52.294;4.692;2023-02-27T07:30:26;2.90;;;1.50;;
78382;SDS011;67668;52.294;4.692;2023-02-27T07:32:54;2.92;;;1.17;;
78382;SDS011;67668;52.294;4.692;2023-02-27T07:35:20;3.83;;;1.40;;
78382;SDS011;67668;52.294;4.692;2023-02-27T07:37:46;5.32;;;2.00;;
78382;SDS011;67668;52.294;4.692;2023-02-27T07:40:11;6.97;;;1.48;;
78382;SDS011;67668;52.294;4.692;2023-02-27T07:42:37;5.05;;;1.80;;
78382;SDS011;67668;52.294;4.692;2023-02-27T07:45:02;4.10;;;1.70;;
78382;SDS011;67668;52.294;4.692;2023-02-27T07:47:28;3.90;;;1.85;;
78382;SDS011;67668;52.294;4.692;2023-02-27T07:49:54;2.92;;;1.88;;
78382;SDS011;67668;52.294;4.692;2023-02-27T07:52:19;4.03;;;1.50;;
78382;SDS011;67668;52.294;4.692;2023-02-27T07:54:45;5.82;;;2.00;;
78382;SDS011;67668;52.294;4.692;2023-02-27T07:57:10;3.93;;;1.87;;
78382;SDS011;67668;52.294;4.692;2023-02-27T07:59:36;4.68;;;1.75;;
78382;SDS011;67668;52.294;4.692;2023-02-27T08:02:01;6.03;;;1.90;;
78382;SDS011;67668;52.294;4.692;2023-02-27T08:04:27;3.55;;;1.60;;
78382;SDS011;67668;52.294;4.692;2023-02-27T08:06:52;3.93;;;1.40;;
78382;SDS011;67668;52.294;4.692;2023-02-27T08:09:18;3.17;;;1.53;;
78382;SDS011;67668;52.294;4.692;2023-02-27T08:11:43;4.72;;;1.60;;
78382;SDS011;67668;52.294;4.692;2023-02-27T08:14:09;2.90;;;1.48;;
78382;SDS011;67668;52.294;4.692;2023-02-27T08:16:34;4.50;;;1.52;;
78382;SDS011;67668;52.294;4.692;2023-02-27T08:19:00;4.10;;;1.45;;
78382;SDS011;67668;52.294;4.692;2023-02-27T08:21:26;3.55;;;1.48;;
78382;SDS011;67668;52.294;4.692;2023-02-27T08:23:52;6.80;;;1.98;;
78382;SDS011;67668;52.294;4.692;2023-02-27T08:26:18;4.00;;;1.67;;
78382;SDS011;67668;52.294;4.692;2023-02-27T08:28:45;4.32;;;2.05;;
78382;SDS011;67668;52.294;4.692;2023-02-27T08:31:11;2.83;;;1.48;;
78382;SDS011;67668;52.294;4.692;2023-02-27T08:33:37;3.35;;;1.40;;
78382;SDS011;67668;52.294;4.692;2023-02-27T08:36:03;5.47;;;1.50;;
78382;SDS011;67668;52.294;4.692;2023-02-27T08:38:31;2.40;;;1.45;;
78382;SDS011;67668;52.294;4.692;2023-02-27T08:40:57;2.15;;;1.15;;
78382;SDS011;67668;52.294;4.692;2023-02-27T08:43:22;2.50;;;1.08;;
78382;SDS011;67668;52.294;4.692;2023-02-27T08:45:48;5.10;;;1.47;;
78382;SDS011;67668;52.294;4.692;2023-02-27T08:50:41;5.90;;;1.63;;
78382;SDS011;67668;52.294;4.692;2023-02-27T08:53:07;2.40;;;1.23;;
78382;SDS011;67668;52.294;4.692;2023-02-27T08:55:33;9.82;;;2.10;;
78382;SDS011;67668;52.294;4.692;2023-02-27T08:57:58;4.60;;;1.75;;
78382;SDS011;67668;52.294;4.692;2023-02-27T09:00:24;6.83;;;2.50;;
78382;SDS011;67668;52.294;4.692;2023-02-27T09:02:50;4.75;;;1.70;;
78382;SDS011;67668;52.294;4.692;2023-02-27T09:05:16;5.67;;;1.40;;
78382;SDS011;67668;52.294;4.692;2023-02-27T09:07:41;8.13;;;1.88;;
78382;SDS011;67668;52.294;4.692;2023-02-27T09:10:07;4.70;;;1.50;;
78382;SDS011;67668;52.294;4.692;2023-02-27T09:12:33;9.60;;;1.92;;
78382;SDS011;67668;52.294;4.692;2023-02-27T09:14:59;7.15;;;2.13;;
78382;SDS011;67668;52.294;4.692;2023-02-27T09:17:24;4.53;;;1.50;;
78382;SDS011;67668;52.294;4.692;2023-02-27T09:19:50;4.25;;;1.52;;
78382;SDS011;67668;52.294;4.692;2023-02-27T09:22:16;5.13;;;1.70;;
78382;SDS011;67668;52.294;4.692;2023-02-27T09:24:42;5.93;;;1.73;;
78382;SDS011;67668;52.294;4.692;2023-02-27T09:27:07;2.27;;;1.20;;
78382;SDS011;67668;52.294;4.692;2023-02-27T09:29:33;2.88;;;1.90;;
78382;SDS011;67668;52.294;4.692;2023-02-27T09:31:58;4.53;;;1.15;;
78382;SDS011;67668;52.294;4.692;2023-02-27T09:34:24;3.08;;;0.88;;
78382;SDS011;67668;52.294;4.692;2023-02-27T09:36:49;2.95;;;0.80;;
78382;SDS011;67668;52.294;4.692;2023-02-27T09:47:26;3.70;;;1.38;;
78382;SDS011;67668;52.294;4.692;2023-02-27T09:49:56;5.68;;;0.70;;
78382;SDS011;67668;52.294;4.692;2023-02-27T09:52:31;2.67;;;0.80;;
78382;SDS011;67668;52.294;4.692;2023-02-27T09:55:00;2.45;;;0.65;;
78382;SDS011;67668;52.294;4.692;2023-02-27T09:57:36;5.90;;;0.68;;
78382;SDS011;67668;52.294;4.692;2023-02-27T10:00:15;4.45;;;0.77;;
78382;SDS011;67668;52.294;4.692;2023-02-27T10:03:07;2.60;;;0.45;;
78382;SDS011;67668;52.294;4.692;2023-02-27T10:05:51;6.38;;;1.63;;
78382;SDS011;67668;52.294;4.692;2023-02-27T10:08:40;6.97;;;0.70;;
78382;SDS011;67668;52.294;4.692;2023-02-27T10:11:14;4.95;;;0.80;;
78382;SDS011;67668;52.294;4.692;2023-02-27T10:13:49;1.75;;;0.70;;
78382;SDS011;67668;52.294;4.692;2023-02-27T10:16:23;2.85;;;1.33;;
78382;SDS011;67668;52.294;4.692;2023-02-27T10:18:57;1.80;;;0.45;;
78382;SDS011;67668;52.294;4.692;2023-02-27T10:21:33;0.88;;;0.30;;
78382;SDS011;67668;52.294;4.692;2023-02-27T10:26:51;3.33;;;0.38;;
78382;SDS011;67668;52.294;4.692;2023-02-27T10:29:26;5.40;;;0.50;;
78382;SDS011;67668;52.294;4.692;2023-02-27T10:32:35;3.50;;;0.40;;
78382;SDS011;67668;52.294;4.692;2023-02-27T10:34:42;1.80;;;0.45;;
78382;SDS011;67668;52.294;4.692;2023-02-27T10:37:13;4.13;;;0.60;;
78382;SDS011;67668;52.294;4.692;2023-02-27T10:39:44;3.90;;;0.60;;
78382;SDS011;67668;52.294;4.692;2023-02-27T10:42:12;5.18;;;0.70;;
78382;SDS011;67668;52.294;4.692;2023-02-27T10:44:40;4.20;;;0.70;;
78382;SDS011;67668;52.294;4.692;2023-02-27T10:47:05;6.78;;;0.40;;
78382;SDS011;67668;52.294;4.692;2023-02-27T10:49:31;2.90;;;0.30;;
78382;SDS011;67668;52.294;4.692;2023-02-27T10:52:08;2.90;;;0.32;;
78382;SDS011;67668;52.294;4.692;2023-02-27T10:54:38;4.82;;;0.30;;
78382;SDS011;67668;52.294;4.692;2023-02-27T10:57:26;1.58;;;0.50;;
78382;SDS011;67668;52.294;4.692;2023-02-27T11:00:04;1.38;;;0.80;;
78382;SDS011;67668;52.294;4.692;2023-02-27T11:02:41;5.75;;;0.65;;
78382;SDS011;67668;52.294;4.692;2023-02-27T11:13:09;1.33;;;0.30;;
78382;SDS011;67668;52.294;4.692;2023-02-27T11:15:45;4.20;;;0.40;;
78382;SDS011;67668;52.294;4.692;2023-02-27T11:18:29;2.90;;;0.40;;
78382;SDS011;67668;52.294;4.692;2023-02-27T11:26:27;3.70;;;0.40;;
78382;SDS011;67668;52.294;4.692;2023-02-27T11:29:17;2.70;;;0.77;;
78382;SDS011;67668;52.294;4.692;2023-02-27T11:31:45;2.20;;;0.32;;
78382;SDS011;67668;52.294;4.692;2023-02-27T11:34:26;4.35;;;0.50;;
78382;SDS011;67668;52.294;4.692;2023-02-27T11:39:33;1.15;;;0.20;;
78382;SDS011;67668;52.294;4.692;2023-02-27T11:42:46;1.38;;;0.30;;
78382;SDS011;67668;52.294;4.692;2023-02-27T11:47:45;0.80;;;0.32;;
78382;SDS011;67668;52.294;4.692;2023-02-27T11:55:37;1.50;;;0.20;;
78382;SDS011;67668;52.294;4.692;2023-02-27T12:00:41;2.03;;;0.40;;
78382;SDS011;67668;52.294;4.692;2023-02-27T12:05:53;0.95;;;0.25;;
78382;SDS011;67668;52.294;4.692;2023-02-27T12:11:33;2.40;;;0.80;;
78382;SDS011;67668;52.294;4.692;2023-02-27T12:19:12;2.45;;;0.77;;
78382;SDS011;67668;52.294;4.692;2023-02-27T12:21:46;5.72;;;1.20;;
78382;SDS011;67668;52.294;4.692;2023-02-27T12:26:45;1.80;;;0.38;;
78382;SDS011;67668;52.294;4.692;2023-02-27T12:35:11;7.30;;;0.47;;
78382;SDS011;67668;52.294;4.692;2023-02-27T12:37:41;0.60;;;0.20;;
78382;SDS011;67668;52.294;4.692;2023-02-27T12:45:28;1.80;;;0.52;;
78382;SDS011;67668;52.294;4.692;2023-02-27T12:48:17;4.30;;;0.45;;
78382;SDS011;67668;52.294;4.692;2023-02-27T13:05:03;2.15;;;0.40;;
78382;SDS011;67668;52.294;4.692;2023-02-27T13:08:23;3.78;;;0.82;;
78382;SDS011;67668;52.294;4.692;2023-02-27T13:10:33;2.50;;;0.40;;
78382;SDS011;67668;52.294;4.692;2023-02-27T13:13:08;1.23;;;0.35;;
78382;SDS011;67668;52.294;4.692;2023-02-27T13:15:48;1.30;;;0.30;;
78382;SDS011;67668;52.294;4.692;2023-02-27T13:21:18;1.35;;;0.57;;
78382;SDS011;67668;52.294;4.692;2023-02-27T13:26:39;2.67;;;0.43;;
78382;SDS011;67668;52.294;4.692;2023-02-27T13:29:14;2.22;;;0.63;;
78382;SDS011;67668;52.294;4.692;2023-02-27T13:31:47;4.10;;;0.65;;
78382;SDS011;67668;52.294;4.692;2023-02-27T13:34:39;2.28;;;0.28;;
78382;SDS011;67668;52.294;4.692;2023-02-27T13:37:16;1.88;;;0.47;;
78382;SDS011;67668;52.294;4.692;2023-02-27T13:44:52;1.85;;;0.80;;
78382;SDS011;67668;52.294;4.692;2023-02-27T13:49:56;2.38;;;0.50;;
78382;SDS011;67668;52.294;4.692;2023-02-27T13:54:59;2.85;;;0.55;;
78382;SDS011;67668;52.294;4.692;2023-02-27T13:57:32;2.22;;;0.70;;
78382;SDS011;67668;52.294;4.692;2023-02-27T14:00:02;1.35;;;0.38;;
78382;SDS011;67668;52.294;4.692;2023-02-27T14:02:43;2.30;;;0.75;;
78382;SDS011;67668;52.294;4.692;2023-02-27T14:05:15;3.88;;;1.08;;
78382;SDS011;67668;52.294;4.692;2023-02-27T14:07:54;1.48;;;0.45;;
78382;SDS011;67668;52.294;4.692;2023-02-27T14:10:28;5.07;;;0.60;;
78382;SDS011;67668;52.294;4.692;2023-02-27T14:12:55;3.80;;;0.50;;
78382;SDS011;67668;52.294;4.692;2023-02-27T14:17:50;2.93;;;0.50;;
78382;SDS011;67668;52.294;4.692;2023-02-27T14:25:42;3.05;;;0.40;;
78382;SDS011;67668;52.294;4.692;2023-02-27T14:31:01;1.02;;;0.50;;
78382;SDS011;67668;52.294;4.692;2023-02-27T14:36:14;4.43;;;0.85;;
78382;SDS011;67668;52.294;4.692;2023-02-27T14:38:40;3.13;;;0.50;;
78382;SDS011;67668;52.294;4.692;2023-02-27T14:43:51;2.95;;;0.50;;
78382;SDS011;67668;52.294;4.692;2023-02-27T14:49:01;2.20;;;0.40;;
78382;SDS011;67668;52.294;4.692;2023-02-27T14:51:31;0.55;;;0.22;;
78382;SDS011;67668;52.294;4.692;2023-02-27T14:54:10;2.78;;;0.65;;
78382;SDS011;67668;52.294;4.692;2023-02-27T14:56:39;1.40;;;0.50;;
78382;SDS011;67668;52.294;4.692;2023-02-27T14:59:23;1.95;;;0.82;;
78382;SDS011;67668;52.294;4.692;2023-02-27T15:01:49;1.23;;;0.55;;
78382;SDS011;67668;52.294;4.692;2023-02-27T15:04:17;2.28;;;0.40;;
78382;SDS011;67668;52.294;4.692;2023-02-27T15:06:50;4.07;;;0.68;;
78382;SDS011;67668;52.294;4.692;2023-02-27T15:09:40;3.53;;;0.60;;
78382;SDS011;67668;52.294;4.692;2023-02-27T15:12:07;2.35;;;0.40;;
78382;SDS011;67668;52.294;4.692;2023-02-27T15:14:37;2.08;;;0.90;;
78382;SDS011;67668;52.294;4.692;2023-02-27T15:17:17;2.60;;;0.50;;
78382;SDS011;67668;52.294;4.692;2023-02-27T15:19:51;1.45;;;0.50;;
78382;SDS011;67668;52.294;4.692;2023-02-27T15:22:19;0.90;;;0.28;;
78382;SDS011;67668;52.294;4.692;2023-02-27T15:24:50;3.17;;;0.60;;
78382;SDS011;67668;52.294;4.692;2023-02-27T15:29:47;1.17;;;0.40;;
78382;SDS011;67668;52.294;4.692;2023-02-27T15:32:36;2.63;;;0.35;;
78382;SDS011;67668;52.294;4.692;2023-02-27T15:37:53;0.98;;;0.30;;
78382;SDS011;67668;52.294;4.692;2023-02-27T15:40:22;3.78;;;0.30;;
78382;SDS011;67668;52.294;4.692;2023-02-27T15:42:50;4.15;;;0.45;;
78382;SDS011;67668;52.294;4.692;2023-02-27T15:45:17;3.83;;;0.82;;
78382;SDS011;67668;52.294;4.692;2023-02-27T15:47:45;3.10;;;0.55;;
78382;SDS011;67668;52.294;4.692;2023-02-27T15:52:41;0.70;;;0.32;;
78382;SDS011;67668;52.294;4.692;2023-02-27T15:55:26;1.20;;;0.40;;
78382;SDS011;67668;52.294;4.692;2023-02-27T15:57:54;2.60;;;0.35;;
78382;SDS011;67668;52.294;4.692;2023-02-27T16:02:53;1.52;;;0.43;;
78382;SDS011;67668;52.294;4.692;2023-02-27T16:05:25;1.20;;;0.40;;
78382;SDS011;67668;52.294;4.692;2023-02-27T16:07:54;1.77;;;0.30;;
78382;SDS011;67668;52.294;4.692;2023-02-27T16:12:48;1.50;;;0.22;;
78382;SDS011;67668;52.294;4.692;2023-02-27T16:18:43;2.20;;;0.40;;
78382;SDS011;67668;52.294;4.692;2023-02-27T16:20:38;2.03;;;0.63;;
78382;SDS011;67668;52.294;4.692;2023-02-27T16:26:02;2.65;;;0.32;;
78382;SDS011;67668;52.294;4.692;2023-02-27T16:28:55;2.50;;;0.30;;
78382;SDS011;67668;52.294;4.692;2023-02-27T16:31:38;1.58;;;0.20;;
78382;SDS011;67668;52.294;4.692;2023-02-27T16:36:38;3.30;;;0.40;;
78382;SDS011;67668;52.294;4.692;2023-02-27T16:39:05;1.92;;;0.38;;
78382;SDS011;67668;52.294;4.692;2023-02-27T16:41:32;3.67;;;0.20;;
78382;SDS011;67668;52.294;4.692;2023-02-27T16:46:23;1.17;;;0.47;;
78382;SDS011;67668;52.294;4.692;2023-02-27T16:51:17;0.35;;;0.10;;
78382;SDS011;67668;52.294;4.692;2023-02-27T16:53:46;1.08;;;0.10;;
78382;SDS011;67668;52.294;4.692;2023-02-27T16:56:12;1.00;;;0.30;;
78382;SDS011;67668;52.294;4.692;2023-02-27T17:01:03;2.07;;;0.40;;
78382;SDS011;67668;52.294;4.692;2023-02-27T17:03:29;3.33;;;0.35;;
78382;SDS011;67668;52.294;4.692;2023-02-27T17:08:21;2.05;;;0.20;;
78382;SDS011;67668;52.294;4.692;2023-02-27T17:13:12;3.30;;;0.77;;
78382;SDS011;67668;52.294;4.692;2023-02-27T17:18:03;2.60;;;0.20;;
78382;SDS011;67668;52.294;4.692;2023-02-27T17:22:54;2.03;;;0.20;;
78382;SDS011;67668;52.294;4.692;2023-02-27T17:27:45;0.77;;;0.30;;
78382;SDS011;67668;52.294;4.692;2023-02-27T17:30:11;1.50;;;0.33;;
78382;SDS011;67668;52.294;4.692;2023-02-27T17:32:37;2.92;;;0.43;;
78382;SDS011;67668;52.294;4.692;2023-02-27T17:37:28;2.55;;;0.40;;
78382;SDS011;67668;52.294;4.692;2023-02-27T17:42:19;0.53;;;0.10;;
78382;SDS011;67668;52.294;4.692;2023-02-27T17:44:46;1.38;;;0.40;;
78382;SDS011;67668;52.294;4.692;2023-02-27T17:49:38;1.60;;;0.45;;
78382;SDS011;67668;52.294;4.692;2023-02-27T17:54:31;1.17;;;0.43;;
78382;SDS011;67668;52.294;4.692;2023-02-27T17:59:22;0.70;;;0.20;;
78382;SDS011;67668;52.294;4.692;2023-02-27T18:01:47;2.17;;;0.73;;
78382;SDS011;67668;52.294;4.692;2023-02-27T18:06:38;1.67;;;0.35;;
78382;SDS011;67668;52.294;4.692;2023-02-27T18:11:29;4.30;;;0.30;;
78382;SDS011;67668;52.294;4.692;2023-02-27T18:13:55;1.92;;;0.45;;
78382;SDS011;67668;52.294;4.692;2023-02-27T18:16:21;0.85;;;0.25;;
78382;SDS011;67668;52.294;4.692;2023-02-27T18:18:47;1.15;;;0.65;;
78382;SDS011;67668;52.294;4.692;2023-02-27T18:23:45;2.00;;;0.22;;
78382;SDS011;67668;52.294;4.692;2023-02-27T18:26:16;1.50;;;0.40;;
78382;SDS011;67668;52.294;4.692;2023-02-27T18:28:51;1.33;;;0.22;;
78382;SDS011;67668;52.294;4.692;2023-02-27T18:31:19;1.25;;;0.43;;
78382;SDS011;67668;52.294;4.692;2023-02-27T18:33:48;2.03;;;0.77;;
78382;SDS011;67668;52.294;4.692;2023-02-27T18:38:41;2.05;;;0.75;;
78382;SDS011;67668;52.294;4.692;2023-02-27T18:43:34;2.05;;;0.90;;
78382;SDS011;67668;52.294;4.692;2023-02-27T18:46:03;3.42;;;0.65;;
78382;SDS011;67668;52.294;4.692;2023-02-27T18:51:01;1.77;;;0.87;;
78382;SDS011;67668;52.294;4.692;2023-02-27T18:53:30;2.13;;;0.70;;
78382;SDS011;67668;52.294;4.692;2023-02-27T18:55:59;1.70;;;0.80;;
78382;SDS011;67668;52.294;4.692;2023-02-27T18:58:26;3.10;;;0.90;;
78382;SDS011;67668;52.294;4.692;2023-02-27T19:00:51;1.95;;;0.82;;
78382;SDS011;67668;52.294;4.692;2023-02-27T19:05:42;4.63;;;1.40;;
78382;SDS011;67668;52.294;4.692;2023-02-27T19:10:32;4.97;;;1.70;;
78382;SDS011;67668;52.294;4.692;2023-02-27T19:13:02;5.03;;;1.90;;
78382;SDS011;67668;52.294;4.692;2023-02-27T19:17:52;3.13;;;1.53;;
78382;SDS011;67668;52.294;4.692;2023-02-27T19:20:19;4.18;;;1.48;;
78382;SDS011;67668;52.294;4.692;2023-02-27T19:22:45;2.53;;;1.38;;
78382;SDS011;67668;52.294;4.692;2023-02-27T19:25:10;6.45;;;1.60;;
78382;SDS011;67668;52.294;4.692;2023-02-27T19:27:35;4.13;;;1.23;;
78382;SDS011;67668;52.294;4.692;2023-02-27T19:30:02;4.45;;;2.00;;
78382;SDS011;67668;52.294;4.692;2023-02-27T19:32:28;5.88;;;1.38;;
78382;SDS011;67668;52.294;4.692;2023-02-27T19:34:55;5.05;;;2.03;;
78382;SDS011;67668;52.294;4.692;2023-02-27T19:37:20;5.07;;;2.35;;
78382;SDS011;67668;52.294;4.692;2023-02-27T19:39:45;3.35;;;2.03;;
78382;SDS011;67668;52.294;4.692;2023-02-27T19:44:36;4.37;;;2.03;;
78382;SDS011;67668;52.294;4.692;2023-02-27T19:47:03;4.90;;;1.92;;